Time;durP1;ratioP1;P1;durP2;ratioP2;P2;SDS_P1;SDS_P2;PMS_P1;PMS_P2;Temp;Humidity;BMP_temperature;BMP_pressure;BME280_temperature;BME280_humidity;BME280_pressure;Samples;Min_cycle;Max_cycle;Signal;HPM_P1;HPM_P2
2024/04/21 00:08:29;;;;;;;2.15;0.95;;;;;;;;;;22975228;25;1446892;-59
2024/04/21 00:18:31;;;;;;;2.35;1.00;;;;;;;;;;23030919;25;20000;-60
2024/04/21 00:28:32;;;;;;;5.45;1.00;;;;;;;;;;23029505;25;20005;-60
2024/04/21 00:38:33;;;;;;;2.95;1.00;;;;;;;;;;23027186;25;20008;-60
2024/04/21 00:48:35;;;;;;;1.75;1.05;;;;;;;;;;23029569;25;20022;-60
2024/04/21 00:58:36;;;;;;;2.17;0.90;;;;;;;;;;23027874;25;20034;-60
2024/04/21 01:08:38;;;;;;;2.53;0.93;;;;;;;;;;23028335;25;20035;-61
2024/04/21 01:18:40;;;;;;;2.22;0.93;;;;;;;;;;23028102;25;19997;-61
2024/04/21 01:28:42;;;;;;;2.53;1.10;;;;;;;;;;23027011;25;20001;-61
2024/04/21 01:38:44;;;;;;;1.00;0.75;;;;;;;;;;23026482;25;20016;-60
2024/04/21 01:48:46;;;;;;;2.53;0.90;;;;;;;;;;23025464;25;20409;-60
2024/04/21 01:58:48;;;;;;;2.55;0.90;;;;;;;;;;23025155;25;20094;-59
2024/04/21 02:08:49;;;;;;;3.90;1.20;;;;;;;;;;23024530;25;20438;-60
2024/04/21 02:18:51;;;;;;;1.88;1.00;;;;;;;;;;23023488;25;20008;-60
2024/04/21 02:28:52;;;;;;;2.38;1.02;;;;;;;;;;23021629;25;20011;-61
2024/04/21 02:38:54;;;;;;;1.02;0.85;;;;;;;;;;23021264;25;20008;-60
2024/04/21 02:48:56;;;;;;;3.25;1.10;;;;;;;;;;23020483;25;19997;-60
2024/04/21 02:58:57;;;;;;;1.75;1.00;;;;;;;;;;23022497;25;20038;-60
2024/04/21 03:08:59;;;;;;;2.08;1.00;;;;;;;;;;23035378;25;20387;-60
2024/04/21 03:19:02;;;;;;;2.35;1.17;;;;;;;;;;23036438;25;19997;-60
2024/04/21 03:29:03;;;;;;;2.67;0.95;;;;;;;;;;23034926;25;20320;-60
2024/04/21 03:39:05;;;;;;;2.33;1.13;;;;;;;;;;23034092;25;20011;-60
2024/04/21 03:49:06;;;;;;;2.67;1.08;;;;;;;;;;23032263;25;20008;-60
2024/04/21 03:59:07;;;;;;;2.38;1.15;;;;;;;;;;23031907;25;20490;-59
2024/04/21 04:09:09;;;;;;;2.42;1.10;;;;;;;;;;23031346;25;20005;-60
2024/04/21 04:19:10;;;;;;;3.35;1.50;;;;;;;;;;23030223;25;20004;-60
2024/04/21 04:29:11;;;;;;;2.35;1.10;;;;;;;;;;23029441;25;20005;-61
2024/04/21 04:39:13;;;;;;;2.70;1.10;;;;;;;;;;23027977;25;20000;-60
2024/04/21 04:49:14;;;;;;;2.70;1.00;;;;;;;;;;23026763;25;20003;-60
2024/04/21 04:59:15;;;;;;;3.88;1.45;;;;;;;;;;23027965;25;20008;-59
2024/04/21 05:09:17;;;;;;;8.57;1.40;;;;;;;;;;23027737;25;20069;-60
2024/04/21 05:19:18;;;;;;;3.08;1.42;;;;;;;;;;23028802;25;20434;-60
2024/04/21 05:29:19;;;;;;;2.95;1.17;;;;;;;;;;23024700;25;20005;-60
2024/04/21 05:39:22;;;;;;;1.83;1.13;;;;;;;;;;23025220;25;20422;-60
2024/04/21 05:49:24;;;;;;;2.47;1.10;;;;;;;;;;23023546;25;20131;-60
2024/04/21 05:59:25;;;;;;;1.95;1.13;;;;;;;;;;23023343;25;20335;-60
2024/04/21 06:09:26;;;;;;;3.63;1.45;;;;;;;;;;23022453;25;20005;-60
2024/04/21 06:19:28;;;;;;;2.97;1.00;;;;;;;;;;23023612;25;19997;-60
2024/04/21 06:29:29;;;;;;;2.58;1.63;;;;;;;;;;23022769;25;20064;-61
2024/04/21 06:39:30;;;;;;;2.55;1.20;;;;;;;;;;23030157;25;20008;-61
2024/04/21 06:49:36;;;;;;;2.78;1.10;;;;;;;;;;23035550;25;20004;-61
2024/04/21 06:59:38;;;;;;;3.78;1.10;;;;;;;;;;23037736;25;20437;-60
2024/04/21 07:09:40;;;;;;;3.17;1.30;;;;;;;;;;23035349;25;20072;-60
2024/04/21 07:19:43;;;;;;;6.35;1.50;;;;;;;;;;23034992;25;20212;-59
2024/04/21 07:29:44;;;;;;;4.60;2.20;;;;;;;;;;23033257;25;20005;-60
2024/04/21 07:39:45;;;;;;;3.03;1.33;;;;;;;;;;23033736;25;19996;-60
2024/04/21 07:49:47;;;;;;;3.03;1.52;;;;;;;;;;23032350;25;20068;-61
2024/04/21 07:59:48;;;;;;;2.88;1.50;;;;;;;;;;23030523;25;20001;-60
2024/04/21 08:09:49;;;;;;;4.85;1.23;;;;;;;;;;23029121;25;20009;-57
2024/04/21 08:19:51;;;;;;;8.40;1.48;;;;;;;;;;23028371;25;20012;-56
2024/04/21 08:29:52;;;;;;;4.32;1.40;;;;;;;;;;23029341;25;20045;-62
2024/04/21 08:39:53;;;;;;;5.93;2.03;;;;;;;;;;23029788;25;20428;-61
2024/04/21 08:49:55;;;;;;;5.60;1.70;;;;;;;;;;23029623;25;20400;-61
2024/04/21 08:59:58;;;;;;;7.25;2.03;;;;;;;;;;23027058;25;19996;-61
2024/04/21 09:10:00;;;;;;;6.60;1.35;;;;;;;;;;23028357;25;20000;-60
2024/04/21 09:20:01;;;;;;;3.80;1.70;;;;;;;;;;23028127;25;20072;-61
2024/04/21 09:30:03;;;;;;;4.13;1.40;;;;;;;;;;23026315;25;20016;-61
2024/04/21 09:40:07;;;;;;;8.65;4.00;;;;;;;;;;23024584;25;20431;-60
2024/04/21 09:50:09;;;;;;;3.50;1.42;;;;;;;;;;23023149;25;20005;-60
2024/04/21 10:00:18;;;;;;;5.20;2.20;;;;;;;;;;23023419;25;20315;-60
2024/04/21 10:10:21;;;;;;;2.75;1.48;;;;;;;;;;23028117;25;20005;-60
2024/04/21 10:20:32;;;;;;;5.93;1.70;;;;;;;;;;23039479;25;20446;-60
2024/04/21 10:30:35;;;;;;;4.55;1.58;;;;;;;;;;23037492;25;20345;-61
2024/04/21 10:40:39;;;;;;;2.72;1.45;;;;;;;;;;23035797;25;19993;-60
2024/04/21 10:50:42;;;;;;;6.05;1.90;;;;;;;;;;23035862;25;20001;-61
2024/04/21 11:00:45;;;;;;;3.43;1.73;;;;;;;;;;23035677;25;20487;-60
2024/04/21 11:10:47;;;;;;;2.10;1.10;;;;;;;;;;23034219;25;20027;-61
2024/04/21 11:20:48;;;;;;;3.05;1.40;;;;;;;;;;23032202;25;20027;-60
2024/04/21 11:31:03;;;;;;;3.78;1.60;;;;;;;;;;23032396;25;20009;-61
2024/04/21 11:41:04;;;;;;;6.25;1.67;;;;;;;;;;23030759;25;20011;-61
2024/04/21 11:51:06;;;;;;;7.40;2.30;;;;;;;;;;23030502;25;20338;-60
2024/04/21 12:01:08;;;;;;;6.25;2.03;;;;;;;;;;23030054;25;20027;-60
2024/04/21 12:11:10;;;;;;;4.78;1.83;;;;;;;;;;23029107;25;20005;-60
2024/04/21 12:21:12;;;;;;;;;;;;;;;;;;23007302;25;20019;-57
2024/04/21 12:31:15;;;;;;;9.80;2.50;;;;;;;;;;22990890;25;20336;-60
2024/04/21 12:41:17;;;;;;;5.50;1.83;;;;;;;;;;23017212;25;20008;-60
2024/04/21 12:51:19;;;;;;;7.38;2.10;;;;;;;;;;23006215;25;19997;-60
2024/04/21 13:01:20;;;;;;;5.40;2.25;;;;;;;;;;23002183;25;19996;-60
2024/04/21 13:11:21;;;;;;;4.63;1.60;;;;;;;;;;23012033;25;20004;-60
2024/04/21 13:21:23;;;;;;;4.70;1.70;;;;;;;;;;23027894;25;20001;-60
2024/04/21 13:31:24;;;;;;;7.35;2.20;;;;;;;;;;23027543;25;20004;-59
2024/04/21 13:41:25;;;;;;;4.07;2.10;;;;;;;;;;23025873;25;20072;-59
2024/04/21 13:51:28;;;;;;;7.90;1.90;;;;;;;;;;23022461;25;19996;-60
2024/04/21 14:01:30;;;;;;;7.97;2.33;;;;;;;;;;23024715;25;20001;-60
2024/04/21 14:11:31;;;;;;;3.78;2.20;;;;;;;;;;23023902;25;20454;-60
2024/04/21 14:21:32;;;;;;;4.50;2.47;;;;;;;;;;23024958;25;19997;-60
2024/04/21 14:31:34;;;;;;;4.40;2.03;;;;;;;;;;23023308;25;20015;-60
2024/04/21 14:41:35;;;;;;;5.82;2.20;;;;;;;;;;23021852;25;20419;-61
2024/04/21 14:51:38;;;;;;;13.77;7.80;;;;;;;;;;23020306;25;20346;-60
2024/04/21 15:01:40;;;;;;;11.10;6.93;;;;;;;;;;23034403;25;20068;-60
2024/04/21 15:11:43;;;;;;;4.60;2.23;;;;;;;;;;23034957;25;20007;-61
2024/04/21 15:21:44;;;;;;;7.82;2.15;;;;;;;;;;23035664;25;20332;-61
2024/04/21 15:31:45;;;;;;;6.05;2.03;;;;;;;;;;23031685;25;20418;-60
2024/04/21 15:41:47;;;;;;;5.37;2.03;;;;;;;;;;23032013;25;20004;-60
2024/04/21 15:51:49;;;;;;;4.82;1.75;;;;;;;;;;23032580;25;20012;-60
2024/04/21 16:01:50;;;;;;;3.55;1.77;;;;;;;;;;23030491;25;20072;-60
2024/04/21 16:11:51;;;;;;;6.75;2.05;;;;;;;;;;23031407;25;20012;-60
2024/04/21 16:21:53;;;;;;;4.53;1.77;;;;;;;;;;23031159;25;20007;-60
2024/04/21 16:31:55;;;;;;;11.93;3.07;;;;;;;;;;23031886;25;20005;-60
2024/04/21 16:41:57;;;;;;;8.32;4.38;;;;;;;;;;23030560;25;20016;-61
2024/04/21 16:51:59;;;;;;;3.03;1.40;;;;;;;;;;23031084;25;20430;-63
2024/04/21 17:02:02;;;;;;;3.35;1.67;;;;;;;;;;23030728;25;19997;-60
2024/04/21 17:12:05;;;;;;;3.60;1.52;;;;;;;;;;23028810;25;19996;-61
2024/04/21 17:22:06;;;;;;;3.15;1.80;;;;;;;;;;23027328;25;20013;-60
2024/04/21 17:32:07;;;;;;;4.18;1.55;;;;;;;;;;23025508;25;20093;-61
2024/04/21 17:42:09;;;;;;;2.70;1.50;;;;;;;;;;23024749;25;20073;-61
2024/04/21 17:52:12;;;;;;;3.90;1.83;;;;;;;;;;23024277;25;20005;-59
2024/04/21 18:02:13;;;;;;;3.35;1.40;;;;;;;;;;23023587;25;20000;-60
2024/04/21 18:12:14;;;;;;;6.70;2.90;;;;;;;;;;23023329;25;20009;-60
2024/04/21 18:22:16;;;;;;;4.97;2.90;;;;;;;;;;23022829;25;20001;-59
2024/04/21 18:32:18;;;;;;;6.97;3.08;;;;;;;;;;23027710;25;20016;-60
2024/04/21 18:42:19;;;;;;;4.65;2.58;;;;;;;;;;23034720;25;20009;-60
2024/04/21 18:52:21;;;;;;;6.28;2.40;;;;;;;;;;23035873;25;20005;-61
2024/04/21 19:02:22;;;;;;;7.78;3.65;;;;;;;;;;23035013;25;20069;-60
2024/04/21 19:12:24;;;;;;;7.57;3.50;;;;;;;;;;23036032;25;20026;-60
2024/04/21 19:22:26;;;;;;;4.47;2.80;;;;;;;;;;23036236;25;20007;-59
2024/04/21 19:32:28;;;;;;;6.82;3.50;;;;;;;;;;23034010;25;19997;-60
2024/04/21 19:42:29;;;;;;;16.00;10.52;;;;;;;;;;23029529;25;19996;-60
2024/04/21 19:52:32;;;;;;;7.97;4.13;;;;;;;;;;23030519;25;20004;-60
2024/04/21 20:02:33;;;;;;;8.75;2.85;;;;;;;;;;23032873;25;20127;-60
2024/04/21 20:12:34;;;;;;;4.05;1.83;;;;;;;;;;23033541;25;20111;-61
2024/04/21 20:22:35;;;;;;;3.75;1.75;;;;;;;;;;23032658;25;20330;-62
2024/04/21 20:32:37;;;;;;;3.38;1.60;;;;;;;;;;23030809;25;20028;-59
2024/04/21 20:42:38;;;;;;;3.50;1.40;;;;;;;;;;23029653;25;20016;-60
2024/04/21 20:52:39;;;;;;;3.75;1.20;;;;;;;;;;23025742;25;20011;-60
2024/04/21 21:02:41;;;;;;;2.08;1.27;;;;;;;;;;23028792;25;20011;-59
2024/04/21 21:12:42;;;;;;;5.90;1.48;;;;;;;;;;23029639;25;20033;-61
2024/04/21 21:22:43;;;;;;;3.80;1.50;;;;;;;;;;23029089;25;20011;-60
2024/04/21 21:32:45;;;;;;;3.85;1.90;;;;;;;;;;23027959;25;19996;-59
2024/04/21 21:42:46;;;;;;;5.85;2.08;;;;;;;;;;23025824;25;20068;-60
2024/04/21 21:52:47;;;;;;;8.30;1.60;;;;;;;;;;23026430;25;20008;-59
2024/04/21 22:02:49;;;;;;;3.78;1.40;;;;;;;;;;23026129;25;19997;-60
2024/04/21 22:12:51;;;;;;;5.25;1.50;;;;;;;;;;23024609;25;19997;-59
2024/04/21 22:22:52;;;;;;;5.75;1.58;;;;;;;;;;23023873;25;19997;-59
2024/04/21 22:32:53;;;;;;;1.77;1.02;;;;;;;;;;23023972;25;20004;-60
2024/04/21 22:42:54;;;;;;;9.60;1.52;;;;;;;;;;23023102;25;20020;-60
2024/04/21 22:52:56;;;;;;;5.78;1.42;;;;;;;;;;23022289;25;20068;-59
2024/04/21 23:02:57;;;;;;;3.53;1.40;;;;;;;;;;23021685;25;20001;-59
2024/04/21 23:13:05;;;;;;;3.05;1.25;;;;;;;;;;23022162;25;19996;-59
2024/04/21 23:23:07;;;;;;;5.57;1.42;;;;;;;;;;23035357;25;20013;-59
2024/04/21 23:33:08;;;;;;;5.25;0.90;;;;;;;;;;23036151;25;19996;-59
2024/04/21 23:43:09;;;;;;;2.05;1.13;;;;;;;;;;23034670;25;20001;-58
2024/04/21 23:53:10;;;;;;;2.25;0.80;;;;;;;;;;23035690;25;20001;-59
